Time;durP1;ratioP1;P1;durP2;ratioP2;P2;SDS_P1;SDS_P2;PMS_P1;PMS_P2;Temp;Humidity;BMP_temperature;BMP_pressure;BME280_temperature;BME280_humidity;BME280_pressure;Samples;Min_cycle;Max_cycle;Signal;HPM_P1;HPM_P2
2023/03/11 00:01:15;;;;;;;4.35;1.73;;;0.60;99.90;;;;;;5030324;28;20089;-68
2023/03/11 00:03:40;;;;;;;5.57;1.80;;;0.60;99.90;;;;;;5027685;28;20052;-68
2023/03/11 00:06:06;;;;;;;5.38;1.60;;;0.50;99.90;;;;;;5024423;28;20050;-68
2023/03/11 00:08:32;;;;;;;4.32;2.40;;;0.50;99.90;;;;;;5039663;28;20049;-68
2023/03/11 00:10:59;;;;;;;5.25;2.03;;;0.50;99.90;;;;;;5023664;28;20054;-68
2023/03/11 00:13:26;;;;;;;3.60;2.00;;;0.50;99.90;;;;;;5019815;28;20050;-68
2023/03/11 00:15:55;;;;;;;11.60;2.33;;;0.40;99.90;;;;;;5014809;28;20172;-68
2023/03/11 00:18:25;;;;;;;7.47;2.00;;;0.40;99.90;;;;;;5023623;28;20048;-67
2023/03/11 00:20:52;;;;;;;5.30;2.10;;;0.40;99.90;;;;;;5020129;28;20046;-68
2023/03/11 00:23:18;;;;;;;4.40;2.10;;;0.40;99.90;;;;;;5023710;28;20042;-68
2023/03/11 00:25:44;;;;;;;8.80;2.38;;;0.50;99.90;;;;;;5029419;28;20052;-68
2023/03/11 00:28:11;;;;;;;6.10;2.03;;;0.40;99.90;;;;;;5022820;28;20041;-68
2023/03/11 00:30:38;;;;;;;6.50;2.20;;;0.50;99.90;;;;;;5024362;28;20068;-68
2023/03/11 00:33:04;;;;;;;5.88;2.40;;;0.50;99.90;;;;;;5022185;28;20544;-68
2023/03/11 00:35:31;;;;;;;8.00;2.80;;;0.50;99.90;;;;;;5029827;28;20221;-68
2023/03/11 00:37:58;;;;;;;;;;;0.50;99.90;;;;;;5028527;28;20550;-68
2023/03/11 00:40:26;;;;;;;7.93;2.03;;;0.50;99.90;;;;;;5024408;28;20475;-68
2023/03/11 00:42:52;;;;;;;7.72;2.45;;;0.50;99.90;;;;;;5025143;28;20451;-68
2023/03/11 00:45:18;;;;;;;4.85;1.90;;;0.50;99.90;;;;;;5027374;28;20478;-68
2023/03/11 00:47:44;;;;;;;6.35;2.17;;;0.60;99.90;;;;;;5019490;28;20053;-68
2023/03/11 00:50:17;;;;;;;8.50;2.85;;;0.60;99.90;;;;;;5020441;28;20499;-68
2023/03/11 00:52:45;;;;;;;8.98;2.33;;;0.60;99.90;;;;;;5030391;28;20077;-68
2023/03/11 00:55:14;;;;;;;7.43;2.30;;;0.60;99.90;;;;;;5025191;28;20048;-68
2023/03/11 00:57:39;;;;;;;9.10;2.20;;;0.60;99.90;;;;;;5013524;28;20121;-68
2023/03/11 01:00:10;;;;;;;7.38;2.60;;;0.60;99.90;;;;;;5010863;28;20156;-68
2023/03/11 01:02:37;;;;;;;7.07;2.35;;;0.70;99.90;;;;;;5016208;28;20136;-68
2023/03/11 01:05:05;;;;;;;8.98;2.45;;;0.70;99.90;;;;;;5021601;28;20581;-68
2023/03/11 01:07:32;;;;;;;13.52;2.88;;;0.70;99.90;;;;;;5017686;28;20096;-68
2023/03/11 01:09:58;;;;;;;6.28;2.10;;;0.70;99.90;;;;;;5018777;28;20045;-68
2023/03/11 01:12:24;;;;;;;7.82;2.20;;;0.60;99.90;;;;;;5016622;28;20060;-67
2023/03/11 01:14:49;;;;;;;8.00;2.63;;;0.60;99.90;;;;;;5022223;28;20117;-68
2023/03/11 01:17:15;;;;;;;9.35;1.92;;;0.60;99.90;;;;;;5026632;28;20052;-68
2023/03/11 01:19:41;;;;;;;10.65;2.20;;;0.70;99.90;;;;;;5029306;28;20042;-68
2023/03/11 01:22:07;;;;;;;6.95;2.03;;;0.60;99.90;;;;;;5025428;28;20045;-68
2023/03/11 01:24:32;;;;;;;13.02;2.38;;;0.60;99.90;;;;;;5024437;28;20041;-68
2023/03/11 01:26:58;;;;;;;8.43;2.80;;;0.60;99.90;;;;;;5019591;28;20042;-68
2023/03/11 01:29:24;;;;;;;8.57;2.28;;;0.70;99.90;;;;;;5023922;28;20535;-68
2023/03/11 01:31:49;;;;;;;9.52;2.10;;;0.60;99.90;;;;;;5022769;28;20054;-68
2023/03/11 01:34:15;;;;;;;7.60;2.30;;;0.70;99.90;;;;;;5031260;28;20103;-68
2023/03/11 01:36:41;;;;;;;7.65;2.38;;;0.60;99.90;;;;;;5025367;28;20041;-67
2023/03/11 01:39:07;;;;;;;9.55;2.15;;;0.60;99.90;;;;;;5021397;28;20136;-68
2023/03/11 01:41:33;;;;;;;7.95;2.40;;;0.60;99.90;;;;;;5022919;28;20615;-68
2023/03/11 01:43:58;;;;;;;8.18;2.42;;;0.60;99.90;;;;;;5018429;28;20141;-68
2023/03/11 01:46:27;;;;;;;8.25;2.20;;;0.60;99.90;;;;;;5015076;28;20129;-68
2023/03/11 01:48:58;;;;;;;7.45;2.28;;;0.60;99.90;;;;;;5020222;28;20439;-68
2023/03/11 01:51:28;;;;;;;9.57;2.30;;;0.60;99.90;;;;;;5029913;28;20115;-68
2023/03/11 01:53:55;;;;;;;5.97;1.77;;;0.60;99.90;;;;;;5029068;28;20095;-68
2023/03/11 01:56:22;;;;;;;8.68;2.47;;;0.60;99.90;;;;;;5017656;28;20046;-68
2023/03/11 01:58:51;;;;;;;8.82;2.03;;;0.60;99.90;;;;;;5022248;28;20049;-68
2023/03/11 02:01:18;;;;;;;9.40;2.50;;;0.60;99.90;;;;;;5029346;28;20057;-68
2023/03/11 02:03:43;;;;;;;8.07;2.22;;;0.60;99.90;;;;;;5015211;28;20053;-68
2023/03/11 02:06:13;;;;;;;12.98;2.25;;;0.60;99.90;;;;;;5024774;28;20458;-68
2023/03/11 02:08:41;;;;;;;10.20;2.00;;;0.50;99.90;;;;;;5028474;28;20049;-68
2023/03/11 02:11:11;;;;;;;6.45;2.03;;;0.60;99.90;;;;;;5016512;28;20420;-67
2023/03/11 02:13:38;;;;;;;8.85;1.90;;;0.60;99.90;;;;;;5023253;28;20429;-68
2023/03/11 02:16:05;;;;;;;9.80;1.98;;;0.70;99.90;;;;;;5027394;28;20041;-68
2023/03/11 02:18:31;;;;;;;4.43;1.92;;;0.60;99.90;;;;;;5025279;28;20095;-68
2023/03/11 02:21:21;;;;;;;7.07;2.28;;;0.60;99.90;;;;;;5018453;28;20077;-68
2023/03/11 02:24:19;;;;;;;9.48;2.00;;;0.50;99.90;;;;;;5013829;28;20103;-68
2023/03/11 02:26:47;;;;;;;9.82;2.15;;;0.60;99.90;;;;;;5021304;28;20045;-68
2023/03/11 02:29:14;;;;;;;9.23;2.33;;;0.50;99.90;;;;;;5025758;28;20530;-68
2023/03/11 02:31:41;;;;;;;6.35;2.15;;;0.50;99.90;;;;;;5024216;28;20087;-68
2023/03/11 02:34:12;;;;;;;9.63;1.88;;;0.60;99.90;;;;;;5027575;28;20128;-68
2023/03/11 02:36:40;;;;;;;8.40;2.10;;;0.60;99.90;;;;;;5028585;28;20128;-68
2023/03/11 02:39:07;;;;;;;7.70;1.95;;;0.50;99.90;;;;;;5026550;28;20121;-68
2023/03/11 02:41:36;;;;;;;7.67;1.90;;;0.60;99.90;;;;;;5025841;28;20049;-68
2023/03/11 02:44:03;;;;;;;7.22;1.90;;;0.60;99.90;;;;;;5027836;28;20296;-68
2023/03/11 02:46:29;;;;;;;7.97;1.90;;;0.60;99.90;;;;;;5011429;28;20504;-68
2023/03/11 02:48:55;;;;;;;12.75;2.95;;;0.60;99.90;;;;;;5023733;28;20107;-68
2023/03/11 02:51:21;;;;;;;6.60;1.90;;;0.60;99.90;;;;;;5014133;28;20128;-68
2023/03/11 02:53:50;;;;;;;8.00;2.03;;;0.60;99.90;;;;;;5025967;28;20124;-68
2023/03/11 02:56:16;;;;;;;8.25;1.90;;;0.60;99.90;;;;;;5019774;28;20042;-68
2023/03/11 02:58:41;;;;;;;7.28;1.90;;;0.60;99.90;;;;;;5011564;28;20124;-68
2023/03/11 03:01:07;;;;;;;5.97;1.70;;;0.60;99.90;;;;;;5025294;28;20062;-68
2023/03/11 03:03:32;;;;;;;5.78;1.83;;;0.60;99.90;;;;;;5023133;28;20042;-67
2023/03/11 03:05:58;;;;;;;8.80;2.08;;;0.50;99.90;;;;;;5023503;28;20459;-68
2023/03/11 03:08:24;;;;;;;8.15;2.05;;;0.60;99.90;;;;;;5020405;28;20455;-68
2023/03/11 03:10:49;;;;;;;9.00;2.22;;;0.50;99.90;;;;;;5012832;28;20064;-68
2023/03/11 03:13:15;;;;;;;7.40;2.10;;;0.60;99.90;;;;;;5019291;28;20045;-68
2023/03/11 03:15:41;;;;;;;6.93;1.42;;;0.50;99.90;;;;;;5027264;28;20390;-68
2023/03/11 03:18:06;;;;;;;10.77;1.90;;;0.50;99.90;;;;;;5015860;28;20056;-68
2023/03/11 03:20:32;;;;;;;6.45;1.80;;;0.40;99.90;;;;;;5020018;28;20473;-68
2023/03/11 03:22:57;;;;;;;8.10;1.75;;;0.40;99.90;;;;;;5012397;28;20084;-68
2023/03/11 03:25:23;;;;;;;8.23;1.60;;;0.40;99.90;;;;;;5028119;28;20045;-68
2023/03/11 03:27:49;;;;;;;7.22;1.80;;;0.40;99.90;;;;;;5013426;28;20069;-68
2023/03/11 03:30:15;;;;;;;4.55;1.73;;;0.40;99.90;;;;;;5022435;28;20041;-68
2023/03/11 03:32:41;;;;;;;9.85;2.05;;;0.30;99.90;;;;;;5013465;28;20481;-68
2023/03/11 03:35:07;;;;;;;10.73;1.83;;;0.30;99.90;;;;;;5013141;28;20057;-68
2023/03/11 03:37:34;;;;;;;7.38;1.55;;;0.30;99.90;;;;;;5021161;28;20426;-67
2023/03/11 03:40:06;;;;;;;3.67;1.55;;;0.20;99.90;;;;;;5027920;28;20616;-68
2023/03/11 03:42:36;;;;;;;7.85;1.95;;;0.20;99.90;;;;;;5031179;28;20056;-68
2023/03/11 03:45:04;;;;;;;6.28;1.73;;;0.20;99.90;;;;;;5019090;28;20038;-68
2023/03/11 03:47:31;;;;;;;12.88;2.33;;;0.20;99.90;;;;;;5025286;28;20045;-68
2023/03/11 03:49:57;;;;;;;6.85;2.08;;;0.10;99.90;;;;;;5026780;28;20041;-67
2023/03/11 03:52:22;;;;;;;5.20;1.60;;;0.10;99.90;;;;;;5024525;28;20515;-68
2023/03/11 03:54:48;;;;;;;5.30;1.70;;;0.00;99.90;;;;;;5026964;28;20049;-67
2023/03/11 03:57:14;;;;;;;7.20;1.88;;;0.00;99.90;;;;;;5025510;28;20049;-68
2023/03/11 03:59:39;;;;;;;4.45;1.55;;;0.00;99.90;;;;;;5030107;28;20038;-68
2023/03/11 04:02:05;;;;;;;4.60;1.42;;;0.00;99.90;;;;;;5025003;28;20046;-68
2023/03/11 04:04:31;;;;;;;7.50;1.85;;;-0.10;99.90;;;;;;5029551;28;20392;-68
2023/03/11 04:06:56;;;;;;;4.65;1.42;;;-0.10;99.90;;;;;;5027585;28;20061;-68
2023/03/11 04:09:22;;;;;;;16.17;2.45;;;-0.10;99.90;;;;;;5026248;28;20130;-68
2023/03/11 04:11:48;;;;;;;4.05;1.50;;;-0.10;99.90;;;;;;5026183;28;20045;-68
2023/03/11 04:14:14;;;;;;;6.20;1.40;;;-0.20;99.90;;;;;;5017956;28;20120;-68
2023/03/11 04:16:39;;;;;;;7.80;1.70;;;-0.20;99.90;;;;;;5026311;28;20048;-68
2023/03/11 04:19:05;;;;;;;7.22;1.77;;;-0.20;99.90;;;;;;5027117;28;20037;-69
2023/03/11 04:21:32;;;;;;;6.60;1.70;;;-0.30;99.90;;;;;;5028300;28;20033;-68
2023/03/11 04:23:57;;;;;;;6.65;1.67;;;-0.40;99.90;;;;;;5025972;28;20232;-68
2023/03/11 04:26:24;;;;;;;3.83;1.60;;;-0.40;99.90;;;;;;5027032;28;20455;-68
2023/03/11 04:28:50;;;;;;;9.02;2.03;;;-0.50;99.90;;;;;;5026746;28;20029;-68
2023/03/11 04:31:16;;;;;;;7.57;1.85;;;-0.50;99.90;;;;;;5015284;28;20046;-67
2023/03/11 04:33:41;;;;;;;8.57;2.10;;;-0.50;99.90;;;;;;5018945;28;20488;-68
2023/03/11 04:36:08;;;;;;;8.60;2.03;;;-0.50;99.90;;;;;;5024851;28;20120;-68
2023/03/11 04:38:34;;;;;;;9.77;2.30;;;-0.60;99.90;;;;;;5027460;28;20133;-67
2023/03/11 04:41:04;;;;;;;6.85;1.73;;;-0.60;99.90;;;;;;5030162;28;20112;-67
2023/03/11 04:43:31;;;;;;;10.00;1.80;;;-0.60;99.90;;;;;;5029041;28;20117;-68
2023/03/11 04:45:57;;;;;;;7.13;1.90;;;-0.60;99.90;;;;;;5026957;28;20449;-67
2023/03/11 04:48:23;;;;;;;4.00;1.48;;;-0.60;99.90;;;;;;5023478;28;20045;-68
2023/03/11 04:50:49;;;;;;;5.68;1.40;;;-0.60;99.90;;;;;;5029701;28;20128;-68
2023/03/11 04:53:15;;;;;;;6.80;1.60;;;-0.70;99.90;;;;;;5024297;28;21688;-68
2023/03/11 04:55:40;;;;;;;10.95;1.85;;;-0.70;99.90;;;;;;5013963;28;20397;-68
2023/03/11 04:58:06;;;;;;;8.30;1.55;;;-0.70;99.90;;;;;;5026117;28;20124;-68
2023/03/11 05:00:31;;;;;;;6.32;1.40;;;-0.70;99.90;;;;;;5028582;28;20064;-68
2023/03/11 05:02:57;;;;;;;5.90;1.58;;;-0.70;99.90;;;;;;5017919;28;20041;-67
2023/03/11 05:05:23;;;;;;;8.90;1.75;;;-0.80;99.90;;;;;;5028999;28;20056;-68
2023/03/11 05:07:48;;;;;;;6.72;2.50;;;-0.80;99.90;;;;;;5028098;28;20037;-68
2023/03/11 05:10:21;;;;;;;6.35;1.70;;;-0.80;99.90;;;;;;5027904;28;21030;-68
2023/03/11 05:12:47;;;;;;;3.65;1.50;;;-0.80;99.90;;;;;;5029828;28;20444;-67
2023/03/11 05:15:13;;;;;;;4.20;1.50;;;-0.90;99.90;;;;;;5024717;28;20050;-67
2023/03/11 05:17:39;;;;;;;7.43;1.60;;;-0.90;99.90;;;;;;5021041;28;20377;-67
2023/03/11 05:20:06;;;;;;;5.50;1.30;;;-0.90;99.90;;;;;;5032052;28;20044;-67
2023/03/11 05:22:32;;;;;;;6.25;1.95;;;-0.90;99.90;;;;;;5023197;28;20057;-67
2023/03/11 05:24:58;;;;;;;7.28;1.67;;;-1.00;99.90;;;;;;5013237;28;20041;-68
2023/03/11 05:27:23;;;;;;;3.90;1.40;;;-1.00;99.90;;;;;;5016037;28;20049;-68
2023/03/11 05:29:49;;;;;;;6.63;1.50;;;-1.00;99.90;;;;;;5028122;28;20049;-67
2023/03/11 05:32:15;;;;;;;5.75;1.70;;;-1.00;99.90;;;;;;5028581;28;20120;-66
2023/03/11 05:34:41;;;;;;;5.28;1.40;;;-1.10;99.90;;;;;;5016831;28;20474;-68
2023/03/11 05:37:06;;;;;;;8.73;1.60;;;-1.10;99.90;;;;;;5015859;28;20377;-67
2023/03/11 05:39:33;;;;;;;5.55;1.67;;;-1.10;99.90;;;;;;5021214;28;20132;-67
2023/03/11 05:41:58;;;;;;;3.80;1.48;;;-1.10;99.90;;;;;;5020908;28;20037;-67
2023/03/11 05:44:24;;;;;;;7.03;1.65;;;-1.10;99.90;;;;;;5023464;28;20132;-67
2023/03/11 05:46:50;;;;;;;7.88;1.75;;;-1.10;99.90;;;;;;5017692;28;20539;-68
2023/03/11 05:49:15;;;;;;;6.53;1.73;;;-1.10;99.90;;;;;;5026593;28;20038;-67
2023/03/11 05:51:41;;;;;;;6.55;1.73;;;-1.20;99.90;;;;;;5028814;28;20468;-67
2023/03/11 05:54:13;;;;;;;7.65;1.98;;;-1.10;99.90;;;;;;5028753;28;20132;-68
2023/03/11 05:56:40;;;;;;;5.68;1.52;;;-1.20;99.90;;;;;;5018482;28;20112;-67
2023/03/11 05:59:06;;;;;;;6.30;1.50;;;-1.20;99.90;;;;;;5025780;28;20064;-67
2023/03/11 06:01:33;;;;;;;7.00;1.92;;;-1.20;99.90;;;;;;5013992;28;20050;-67
2023/03/11 06:03:58;;;;;;;8.95;1.80;;;-1.20;99.90;;;;;;5024189;28;20411;-67
2023/03/11 06:06:25;;;;;;;6.00;2.17;;;-1.20;99.90;;;;;;5031596;28;20120;-68
2023/03/11 06:08:50;;;;;;;5.47;2.05;;;-1.20;99.90;;;;;;5029903;28;20361;-67
2023/03/11 06:11:17;;;;;;;7.97;1.65;;;-1.30;99.90;;;;;;5026251;28;20053;-68
2023/03/11 06:13:42;;;;;;;10.40;2.47;;;-1.20;99.90;;;;;;5029541;28;20044;-67
2023/03/11 06:16:08;;;;;;;5.85;1.90;;;-1.30;99.90;;;;;;5027909;28;20042;-67
2023/03/11 06:18:34;;;;;;;6.90;2.13;;;-1.30;99.90;;;;;;5019420;28;20067;-67
2023/03/11 06:21:01;;;;;;;7.95;1.95;;;-1.30;99.90;;;;;;5023670;28;20095;-67
2023/03/11 06:23:28;;;;;;;5.50;2.20;;;-1.30;99.90;;;;;;5026354;28;20046;-68
2023/03/11 06:26:04;;;;;;;7.50;1.97;;;-1.40;99.90;;;;;;5013774;28;20046;-68
2023/03/11 06:28:31;;;;;;;8.43;2.20;;;-1.40;99.90;;;;;;5021713;28;20319;-67
2023/03/11 06:31:09;;;;;;;9.48;3.45;;;-1.40;99.90;;;;;;5020220;28;20038;-68
2023/03/11 06:33:35;;;;;;;9.07;3.08;;;-1.40;99.90;;;;;;5023436;28;20050;-67
2023/03/11 06:36:02;;;;;;;9.38;3.65;;;-1.30;99.90;;;;;;5016240;28;20512;-67
2023/03/11 06:38:28;;;;;;;11.02;3.95;;;-1.30;99.90;;;;;;5023506;28;20063;-67
2023/03/11 06:40:59;;;;;;;13.65;4.30;;;-1.40;99.90;;;;;;5022772;28;20128;-68
2023/03/11 06:43:24;;;;;;;8.68;3.80;;;-1.30;99.90;;;;;;5023221;28;20048;-68
2023/03/11 06:45:50;;;;;;;8.02;3.83;;;-1.20;99.90;;;;;;5027372;28;20049;-68
2023/03/11 06:48:15;;;;;;;7.03;3.70;;;-1.30;99.90;;;;;;5026884;28;20049;-68
2023/03/11 06:50:41;;;;;;;9.43;3.88;;;-1.30;99.90;;;;;;5015248;28;20041;-68
2023/03/11 06:53:07;;;;;;;8.07;4.03;;;-1.20;99.90;;;;;;5023825;28;20144;-68
2023/03/11 06:55:35;;;;;;;11.00;3.85;;;-1.20;99.90;;;;;;5018669;28;20159;-67
2023/03/11 06:58:01;;;;;;;7.10;3.63;;;-1.20;99.90;;;;;;5016105;28;20136;-68
2023/03/11 07:00:29;;;;;;;10.90;3.97;;;-1.10;99.90;;;;;;5023499;28;20073;-68
2023/03/11 07:02:54;;;;;;;10.65;3.70;;;-1.00;99.90;;;;;;5014723;28;20217;-67
2023/03/11 07:05:20;;;;;;;7.88;3.72;;;-1.00;99.90;;;;;;5019839;28;20439;-68
2023/03/11 07:07:45;;;;;;;7.65;3.70;;;-1.00;99.90;;;;;;5024880;28;20511;-68
2023/03/11 07:10:11;;;;;;;6.55;3.97;;;-0.90;99.90;;;;;;5022798;28;20046;-67
2023/03/11 07:12:37;;;;;;;7.85;3.33;;;-0.80;99.90;;;;;;5023264;28;20095;-68
2023/03/11 07:15:03;;;;;;;6.80;2.92;;;-0.80;99.90;;;;;;5018917;28;20111;-67
2023/03/11 07:17:29;;;;;;;7.05;2.67;;;-0.70;99.90;;;;;;5022028;28;20132;-68
2023/03/11 07:19:54;;;;;;;10.20;2.70;;;-0.70;99.90;;;;;;5020230;28;20093;-68
2023/03/11 07:22:20;;;;;;;6.05;2.40;;;-0.60;99.90;;;;;;5024204;28;20042;-67
2023/03/11 07:24:47;;;;;;;5.05;2.22;;;-0.50;99.90;;;;;;5020465;28;20053;-68
2023/03/11 07:27:13;;;;;;;5.75;1.98;;;-0.50;99.90;;;;;;5022653;28;20041;-68
2023/03/11 07:29:39;;;;;;;6.50;2.60;;;-0.40;99.90;;;;;;5026303;28;20061;-71
2023/03/11 07:32:08;;;;;;;6.60;1.88;;;-0.40;99.90;;;;;;5017721;28;20159;-68
2023/03/11 07:34:34;;;;;;;8.75;2.33;;;-0.30;99.90;;;;;;5018340;28;20128;-67
2023/03/11 07:37:00;;;;;;;6.70;2.30;;;-0.30;99.90;;;;;;5025372;28;20081;-67
2023/03/11 07:39:26;;;;;;;5.00;2.35;;;-0.20;99.90;;;;;;5024872;28;20081;-68
2023/03/11 07:41:52;;;;;;;7.22;2.55;;;-0.20;99.90;;;;;;5025968;28;20492;-67
2023/03/11 07:44:18;;;;;;;8.07;2.67;;;-0.20;99.90;;;;;;5025804;28;20076;-70
2023/03/11 07:46:44;;;;;;;6.10;2.80;;;-0.10;99.90;;;;;;5027409;28;20046;-68
2023/03/11 07:49:10;;;;;;;8.30;2.20;;;-0.10;99.90;;;;;;5024627;28;20076;-68
2023/03/11 07:51:38;;;;;;;4.45;2.00;;;0.00;99.90;;;;;;5028667;28;20047;-68
2023/03/11 07:54:03;;;;;;;;;;;0.00;99.90;;;;;;5019787;28;20088;-68
2023/03/11 07:56:32;;;;;;;7.63;2.22;;;0.10;99.90;;;;;;5015681;28;19972;-68
2023/03/11 07:58:59;;;;;;;6.78;2.22;;;0.10;99.90;;;;;;5023527;28;20132;-68
2023/03/11 08:01:29;;;;;;;11.07;3.42;;;0.20;99.90;;;;;;5029452;28;20054;-68
2023/03/11 08:03:57;;;;;;;7.63;2.20;;;0.20;99.90;;;;;;5026347;28;20085;-68
2023/03/11 08:06:30;;;;;;;8.52;2.35;;;0.20;99.90;;;;;;5027705;28;20080;-68
2023/03/11 08:08:59;;;;;;;6.43;1.98;;;0.30;99.90;;;;;;5027549;28;20045;-68
2023/03/11 08:11:25;;;;;;;7.75;1.90;;;0.30;99.90;;;;;;5029365;28;20033;-68
2023/03/11 08:13:52;;;;;;;5.85;1.98;;;0.40;99.90;;;;;;5027830;28;20057;-68
2023/03/11 08:16:21;;;;;;;5.85;1.92;;;0.40;99.90;;;;;;5027934;28;20133;-68
2023/03/11 08:18:48;;;;;;;5.57;2.00;;;0.50;99.90;;;;;;5031195;28;20120;-68
2023/03/11 08:21:17;;;;;;;6.40;1.98;;;0.60;99.90;;;;;;5027449;28;20042;-68
2023/03/11 08:23:44;;;;;;;6.38;1.90;;;0.50;99.90;;;;;;5015834;28;20033;-68
2023/03/11 08:26:14;;;;;;;7.45;2.15;;;0.60;99.90;;;;;;5025264;28;20131;-68
2023/03/11 08:28:40;;;;;;;6.68;2.20;;;0.60;99.90;;;;;;5020611;28;20047;-68
2023/03/11 08:31:20;;;;;;;5.88;2.33;;;0.60;99.90;;;;;;5029956;28;20048;-68
2023/03/11 08:33:50;;;;;;;7.60;2.08;;;0.60;99.90;;;;;;5023341;28;20049;-68
2023/03/11 08:36:16;;;;;;;8.98;2.90;;;0.70;99.90;;;;;;5030395;28;20096;-69
2023/03/11 08:38:49;;;;;;;6.35;3.00;;;0.70;99.90;;;;;;5026682;28;20049;-68
2023/03/11 08:41:15;;;;;;;7.07;3.10;;;0.80;99.90;;;;;;5025167;28;20044;-69
2023/03/11 08:43:41;;;;;;;13.18;3.40;;;0.80;99.90;;;;;;5030716;28;20041;-69
2023/03/11 08:46:07;;;;;;;11.93;3.42;;;0.80;99.90;;;;;;5022166;28;20158;-67
2023/03/11 08:48:35;;;;;;;8.45;3.40;;;0.90;99.90;;;;;;5028978;28;20040;-70
2023/03/11 08:51:01;;;;;;;10.27;3.25;;;0.90;99.90;;;;;;5019896;28;20034;-67
2023/03/11 08:53:27;;;;;;;9.70;3.20;;;1.00;99.90;;;;;;5019796;28;20587;-67
2023/03/11 08:55:56;;;;;;;7.88;3.03;;;1.00;99.90;;;;;;5016800;28;20041;-67
2023/03/11 08:58:22;;;;;;;5.32;2.38;;;1.00;99.90;;;;;;5030018;28;20131;-67
2023/03/11 09:00:47;;;;;;;8.85;2.70;;;1.10;99.90;;;;;;5028374;28;20096;-67
2023/03/11 09:03:13;;;;;;;6.13;2.13;;;1.10;99.90;;;;;;5053469;28;20507;-69
2023/03/11 09:05:39;;;;;;;8.82;2.55;;;1.20;99.90;;;;;;5022022;28;20052;-69
2023/03/11 09:08:05;;;;;;;4.78;1.88;;;1.20;99.90;;;;;;5015384;28;20054;-68
2023/03/11 09:10:30;;;;;;;6.07;1.90;;;1.30;99.90;;;;;;5027408;28;20362;-66
2023/03/11 09:12:56;;;;;;;10.32;2.28;;;1.20;99.90;;;;;;5029825;28;20042;-68
2023/03/11 09:15:22;;;;;;;6.13;1.92;;;1.30;99.90;;;;;;5025859;28;20049;-68
2023/03/11 09:17:48;;;;;;;7.53;2.17;;;1.40;99.90;;;;;;5028027;28;20033;-69
2023/03/11 09:20:14;;;;;;;9.38;2.42;;;1.40;99.90;;;;;;5029713;28;20045;-66
2023/03/11 09:22:40;;;;;;;9.35;2.38;;;1.50;99.90;;;;;;5022269;28;20089;-67
2023/03/11 09:25:06;;;;;;;7.30;2.17;;;1.70;99.90;;;;;;5023762;28;20489;-68
2023/03/11 09:27:32;;;;;;;10.05;2.33;;;1.70;99.90;;;;;;5020406;28;20042;-69
2023/03/11 09:29:58;;;;;;;10.18;2.42;;;1.80;99.90;;;;;;5021840;28;20419;-68
2023/03/11 09:32:23;;;;;;;7.50;2.33;;;1.80;99.90;;;;;;5030802;28;20432;-68
2023/03/11 09:34:49;;;;;;;7.47;2.50;;;1.80;99.90;;;;;;5027931;28;20083;-70
2023/03/11 09:37:14;;;;;;;8.63;2.15;;;1.90;99.90;;;;;;5029272;28;20049;-68
2023/03/11 09:39:40;;;;;;;7.10;2.20;;;1.90;99.90;;;;;;5016363;28;20034;-68
2023/03/11 09:42:48;;;;;;;7.97;2.30;;;2.00;99.90;;;;;;5016439;28;20516;-69
2023/03/11 09:45:26;;;;;;;7.28;2.30;;;2.00;99.90;;;;;;4990728;28;20100;-68
2023/03/11 09:48:23;;;;;;;4.15;2.10;;;2.10;99.90;;;;;;5010333;28;20408;-68
2023/03/11 09:51:07;;;;;;;;;;;2.10;99.90;;;;;;5020140;28;20049;-67
2023/03/11 09:53:48;;;;;;;9.25;2.63;;;2.10;99.90;;;;;;5018977;28;20296;-67
2023/03/11 09:56:20;;;;;;;6.30;2.30;;;2.20;99.90;;;;;;5032072;28;20041;-68
2023/03/11 09:58:54;;;;;;;6.82;2.83;;;2.20;99.90;;;;;;5032352;28;20041;-68
2023/03/11 10:01:30;;;;;;;5.07;2.53;;;2.30;99.90;;;;;;5021459;28;20053;-68
2023/03/11 10:04:03;;;;;;;6.93;1.98;;;2.30;99.90;;;;;;5031989;28;20102;-70
2023/03/11 10:06:29;;;;;;;6.88;2.47;;;2.40;99.90;;;;;;5019400;28;20029;-68
2023/03/11 10:09:36;;;;;;;6.30;2.00;;;2.50;99.90;;;;;;5021765;28;20172;-72
2023/03/11 10:12:35;;;;;;;8.18;2.25;;;2.50;99.90;;;;;;5014989;28;20568;-67
2023/03/11 10:15:04;;;;;;;11.95;2.45;;;2.50;99.90;;;;;;5013030;28;20061;-67
2023/03/11 10:17:45;;;;;;;6.10;2.22;;;2.60;99.90;;;;;;5010122;28;20100;-66
2023/03/11 10:20:25;;;;;;;9.10;2.38;;;2.60;99.90;;;;;;5014602;28;20050;-67
2023/03/11 10:23:14;;;;;;;6.95;2.28;;;2.60;99.90;;;;;;5015200;28;20180;-67
2023/03/11 10:25:59;;;;;;;7.80;2.40;;;2.70;99.90;;;;;;5019912;28;20179;-67
2023/03/11 10:28:35;;;;;;;6.85;2.42;;;2.80;99.90;;;;;;5020243;28;20073;-67
2023/03/11 10:31:19;;;;;;;8.95;2.50;;;2.80;99.90;;;;;;5020583;28;20080;-67
2023/03/11 10:33:59;;;;;;;9.75;2.13;;;2.90;99.90;;;;;;5020607;28;20095;-67
2023/03/11 10:36:36;;;;;;;6.47;2.22;;;2.90;99.90;;;;;;5029318;28;20392;-68
2023/03/11 10:39:04;;;;;;;5.68;1.90;;;3.00;99.90;;;;;;5031391;28;20077;-68
2023/03/11 10:42:01;;;;;;;6.10;2.25;;;3.10;99.90;;;;;;5022326;28;20046;-67
2023/03/11 10:44:36;;;;;;;6.55;2.30;;;3.10;99.90;;;;;;5025582;28;20058;-66
2023/03/11 10:47:02;;;;;;;6.65;2.30;;;3.20;99.90;;;;;;5021980;28;20033;-67
2023/03/11 10:49:29;;;;;;;5.10;2.45;;;3.20;99.90;;;;;;5026014;28;20041;-68
2023/03/11 10:51:56;;;;;;;8.90;2.03;;;3.20;99.90;;;;;;5011486;28;20062;-68
2023/03/11 10:54:32;;;;;;;6.47;2.00;;;3.30;99.90;;;;;;5027937;28;20048;-67
2023/03/11 10:57:03;;;;;;;6.53;2.22;;;3.30;99.90;;;;;;5027138;28;20049;-69
2023/03/11 10:59:32;;;;;;;5.18;1.90;;;3.30;99.90;;;;;;5027397;28;20190;-68
2023/03/11 11:02:19;;;;;;;8.35;2.65;;;3.40;99.90;;;;;;5021708;28;20509;-68
2023/03/11 11:04:44;;;;;;;6.45;2.20;;;3.40;99.90;;;;;;5016154;28;20095;-70
2023/03/11 11:07:29;;;;;;;6.00;2.38;;;3.50;99.90;;;;;;5029563;28;20037;-70
2023/03/11 11:10:10;;;;;;;8.88;2.70;;;3.50;99.90;;;;;;5015965;28;20164;-69
2023/03/11 11:12:47;;;;;;;10.32;2.15;;;3.60;99.90;;;;;;5020796;28;20046;-68
2023/03/11 11:15:33;;;;;;;5.60;2.10;;;3.60;99.90;;;;;;5026179;28;20056;-68
2023/03/11 11:18:05;;;;;;;5.60;2.23;;;3.70;99.90;;;;;;5021396;28;20049;-68
2023/03/11 11:20:32;;;;;;;7.10;2.08;;;3.70;99.90;;;;;;5021902;28;20310;-68
2023/03/11 11:23:00;;;;;;;8.30;2.53;;;3.80;99.90;;;;;;5021543;28;20469;-68
2023/03/11 11:25:37;;;;;;;8.70;2.72;;;3.80;99.90;;;;;;5023918;28;20038;-72
2023/03/11 11:28:18;;;;;;;8.50;2.03;;;3.90;99.90;;;;;;5018572;28;20287;-70
2023/03/11 11:31:19;;;;;;;6.78;2.10;;;4.00;99.90;;;;;;5025246;28;20041;-69
2023/03/11 11:33:53;;;;;;;8.18;2.35;;;4.00;99.90;;;;;;5025497;28;20068;-71
2023/03/11 11:36:23;;;;;;;7.03;2.50;;;4.00;99.90;;;;;;5019536;28;20070;-70
2023/03/11 11:38:51;;;;;;;7.00;2.25;;;4.10;99.90;;;;;;5027065;28;20041;-70
2023/03/11 11:41:20;;;;;;;6.88;1.95;;;4.10;99.90;;;;;;5017887;28;20041;-71
2023/03/11 11:43:53;;;;;;;5.55;2.20;;;4.20;99.90;;;;;;5023151;28;20037;-70
2023/03/11 11:46:30;;;;;;;6.20;2.28;;;4.20;99.90;;;;;;5023366;28;20104;-70
2023/03/11 11:49:11;;;;;;;7.40;2.55;;;4.30;99.90;;;;;;5022401;28;20511;-70
2023/03/11 11:51:58;;;;;;;8.75;2.47;;;4.20;99.90;;;;;;5027500;28;20423;-70
2023/03/11 11:54:39;;;;;;;8.77;2.08;;;4.30;99.90;;;;;;5029270;28;20472;-70
2023/03/11 11:57:11;;;;;;;5.95;1.80;;;4.40;99.90;;;;;;5024215;28;20042;-70
2023/03/11 11:59:36;;;;;;;7.13;3.25;;;4.50;99.90;;;;;;5025437;28;20049;-70
2023/03/11 12:02:57;;;;;;;10.88;4.90;;;4.50;99.90;;;;;;5021848;28;20408;-69
2023/03/11 12:05:29;;;;;;;32.08;21.77;;;4.50;99.90;;;;;;5004099;28;20092;-70
2023/03/11 12:08:01;;;;;;;19.83;10.93;;;4.60;99.90;;;;;;5026790;28;20559;-70
2023/03/11 12:10:51;;;;;;;6.07;1.77;;;4.60;99.90;;;;;;5029998;28;20049;-70
2023/03/11 12:13:40;;;;;;;17.95;7.55;;;4.70;99.90;;;;;;5029736;28;20041;-70
2023/03/11 12:16:50;;;;;;;8.32;1.73;;;4.70;99.90;;;;;;5024993;28;20053;-70
2023/03/11 12:19:36;;;;;;;5.32;1.52;;;4.70;99.90;;;;;;4987202;28;20050;-70
2023/03/11 12:22:25;;;;;;;6.40;1.60;;;4.70;99.90;;;;;;4945007;28;20751;-70
2023/03/11 12:25:12;;;;;;;11.05;2.67;;;4.80;99.90;;;;;;5031742;28;20362;-70
2023/03/11 12:28:12;;;;;;;7.32;2.63;;;4.90;99.90;;;;;;5031930;28;20067;-70
2023/03/11 12:30:47;;;;;;;10.13;2.25;;;4.90;99.90;;;;;;5018737;28;20091;-70
2023/03/11 12:33:18;;;;;;;12.88;5.85;;;4.90;99.90;;;;;;5030859;28;20052;-70
2023/03/11 12:35:53;;;;;;;6.25;2.38;;;5.00;99.90;;;;;;5024311;28;20189;-70
2023/03/11 12:38:33;;;;;;;8.45;1.90;;;5.00;99.90;;;;;;5031443;28;20072;-70
2023/03/11 12:41:03;;;;;;;5.43;1.27;;;4.90;99.90;;;;;;5023462;28;20030;-71
2023/03/11 12:43:34;;;;;;;8.23;1.83;;;4.90;99.90;;;;;;5027609;28;20045;-71
2023/03/11 12:46:04;;;;;;;6.15;1.42;;;5.00;99.90;;;;;;5021968;28;20060;-71
2023/03/11 12:48:44;;;;;;;6.93;2.97;;;5.00;99.90;;;;;;5029529;28;20045;-70
2023/03/11 12:51:25;;;;;;;19.63;11.80;;;5.00;99.90;;;;;;5024862;28;20393;-71
2023/03/11 12:53:51;;;;;;;8.68;2.92;;;5.10;99.90;;;;;;5029889;28;20053;-70
2023/03/11 12:56:33;;;;;;;9.88;6.93;;;5.10;99.90;;;;;;5030227;28;20053;-71
2023/03/11 12:59:21;;;;;;;9.75;3.95;;;5.00;99.90;;;;;;5021881;28;20041;-70
2023/03/11 13:02:16;;;;;;;7.95;2.70;;;5.10;99.90;;;;;;5019294;28;20062;-71
2023/03/11 13:05:09;;;;;;;9.30;4.22;;;5.10;99.90;;;;;;5019602;28;20057;-70
2023/03/11 13:07:45;;;;;;;12.35;6.47;;;5.10;99.90;;;;;;5023306;28;20041;-70